createdAt,value
2023-04-05T00:02:29.938Z,94.50
2023-04-05T00:05:29.299Z,94.30
2023-04-05T00:08:23.961Z,94.20
2023-04-05T00:11:12.618Z,94.50
2023-04-05T00:14:03.381Z,94.70
2023-04-05T00:16:52.047Z,94.70
2023-04-05T00:19:40.568Z,94.90
2023-04-05T00:22:35.982Z,94.80
2023-04-05T00:25:24.386Z,95.20
2023-04-05T00:28:13.092Z,94.60
2023-04-05T00:31:02.901Z,94.80
2023-04-05T00:33:51.341Z,95.00
2023-04-05T00:36:39.768Z,95.00
2023-04-05T00:39:28.487Z,95.00
2023-04-05T00:42:16.904Z,95.10
2023-04-05T00:45:06.066Z,95.20
2023-04-05T00:47:57.085Z,95.50
2023-04-05T00:50:46.371Z,95.50
2023-04-05T00:53:34.908Z,95.40
2023-04-05T00:56:24.396Z,95.40
2023-04-05T00:59:12.914Z,95.30
2023-04-05T01:02:04.957Z,95.30
2023-04-05T01:05:02.038Z,95.40
2023-04-05T01:07:55.423Z,95.30
2023-04-05T01:10:47.713Z,95.30
2023-04-05T01:13:36.585Z,95.60
2023-04-05T01:16:25.012Z,95.60
2023-04-05T01:19:13.446Z,95.70
2023-04-05T01:22:37.975Z,95.80
2023-04-05T01:25:46.461Z,96.10
2023-04-05T01:28:58.325Z,96.50
2023-04-05T01:31:55.069Z,96.20
2023-04-05T01:34:51.642Z,96.20
2023-04-05T01:37:41.410Z,96.20
2023-04-05T01:40:31.281Z,96.40
2023-04-05T01:43:20.059Z,96.40
2023-04-05T01:46:08.842Z,96.50
2023-04-05T01:48:58.657Z,96.80
2023-04-05T01:51:47.115Z,96.80
2023-04-05T01:54:35.645Z,96.70
2023-04-05T01:57:25.002Z,96.80
2023-04-05T02:00:14.459Z,97.00
2023-04-05T02:03:02.944Z,97.00
2023-04-05T02:05:52.836Z,97.10
2023-04-05T02:08:41.202Z,96.80
2023-04-05T02:11:29.644Z,96.80
2023-04-05T02:14:18.046Z,96.40
2023-04-05T02:17:06.728Z,95.90
2023-04-05T02:20:02.211Z,95.60
2023-04-05T02:22:52.005Z,95.90
2023-04-05T02:25:40.417Z,95.90
2023-04-05T02:28:28.913Z,95.40
2023-04-05T02:31:17.373Z,96.20
2023-04-05T02:34:09.251Z,96.70
2023-04-05T02:36:57.648Z,96.30
2023-04-05T02:39:47.605Z,96.30
2023-04-05T02:42:36.209Z,96.10
2023-04-05T02:45:24.649Z,95.90
2023-04-05T02:48:13.052Z,96.00
2023-04-05T02:51:01.634Z,96.30
2023-04-05T02:53:50.207Z,96.00
2023-04-05T02:56:40.042Z,96.30
2023-04-05T02:59:28.629Z,96.50
2023-04-05T03:02:17.126Z,96.50
2023-04-05T03:05:06.046Z,96.40
2023-04-05T03:07:54.767Z,96.20
2023-04-05T03:10:45.072Z,96.30
2023-04-05T03:13:35.924Z,96.40
2023-04-05T03:16:24.421Z,96.50
2023-04-05T03:19:12.834Z,96.50
2023-04-05T03:22:01.284Z,96.90
2023-04-05T03:24:49.678Z,96.90
2023-04-05T03:27:38.547Z,96.90
2023-04-05T03:30:28.353Z,97.00
2023-04-05T03:33:16.873Z,97.00
2023-04-05T03:36:05.773Z,97.10
2023-04-05T03:38:56.051Z,97.10
2023-04-05T03:41:44.492Z,97.20
2023-04-05T03:44:32.919Z,97.40
2023-04-05T03:47:22.763Z,97.40
2023-04-05T03:50:11.469Z,97.50
2023-04-05T03:52:59.959Z,97.70
2023-04-05T03:55:49.562Z,97.50
2023-04-05T03:58:38.412Z,97.50
2023-04-05T04:01:27.054Z,97.30
2023-04-05T04:04:16.858Z,97.40
2023-04-05T04:07:05.818Z,97.50
2023-04-05T04:09:55.442Z,97.70
2023-04-05T04:12:43.864Z,97.70
2023-04-05T04:15:32.828Z,97.70
2023-04-05T04:18:21.295Z,97.80
2023-04-05T04:21:11.737Z,97.90
2023-04-05T04:24:00.802Z,97.90
2023-04-05T04:26:49.850Z,98.00
2023-04-05T04:29:39.144Z,98.10
2023-04-05T04:32:47.819Z,98.30
2023-04-05T04:35:39.153Z,98.30
2023-04-05T04:38:29.227Z,97.90
2023-04-05T04:41:20.237Z,97.90
2023-04-05T04:44:08.781Z,98.00
2023-04-05T04:46:57.164Z,98.00
2023-04-05T04:49:45.857Z,98.10
2023-04-05T04:52:35.481Z,98.30
2023-04-05T04:55:26.169Z,98.30
2023-04-05T04:58:14.832Z,98.50
2023-04-05T05:01:09.775Z,98.50
2023-04-05T05:03:58.730Z,98.50
2023-04-05T05:06:47.330Z,98.40
2023-04-05T05:09:35.770Z,98.40
2023-04-05T05:12:26.823Z,98.70
2023-04-05T05:15:15.367Z,98.90
2023-04-05T05:18:04.577Z,99.00
2023-04-05T05:20:53.440Z,99.20
2023-04-05T05:23:42.182Z,99.90
2023-04-05T05:26:30.709Z,99.90
2023-04-05T05:29:21.104Z,99.90
2023-04-05T05:32:14.404Z,99.90
2023-04-05T05:35:03.089Z,99.90
2023-04-05T05:37:52.610Z,99.90
2023-04-05T05:40:41.266Z,99.90
2023-04-05T05:43:29.934Z,99.80
2023-04-05T05:46:21.195Z,99.50
2023-04-05T05:49:09.997Z,99.70
2023-04-05T05:51:58.602Z,99.80
2023-04-05T05:57:36.711Z,99.90
2023-04-05T06:00:25.298Z,99.90
2023-04-05T06:03:15.285Z,99.90
2023-04-05T06:40:14.460Z,99.90
2023-04-05T06:51:29.787Z,99.60
2023-04-05T06:54:21.257Z,99.90
2023-04-05T06:57:09.720Z,99.40
2023-04-05T06:59:58.639Z,99.40
2023-04-05T07:02:47.100Z,99.20
2023-04-05T07:05:35.510Z,99.70
2023-04-05T07:08:24.935Z,99.00
2023-04-05T07:11:15.886Z,99.30
2023-04-05T07:14:04.374Z,99.30
2023-04-05T07:16:52.977Z,99.30
2023-04-05T07:19:41.447Z,98.40
2023-04-05T07:22:29.878Z,97.70
2023-04-05T07:25:18.413Z,96.50
2023-04-05T07:28:08.265Z,96.90
2023-04-05T07:30:57.034Z,97.40
2023-04-05T07:33:45.734Z,97.10
2023-04-05T07:36:35.398Z,97.30
2023-04-05T07:39:25.567Z,99.90
2023-04-05T07:42:13.992Z,96.60
2023-04-05T07:45:03.995Z,98.30
2023-04-05T07:47:52.497Z,96.80
2023-04-05T07:50:42.579Z,96.40
2023-04-05T07:53:31.223Z,96.60
2023-04-05T07:56:19.675Z,96.60
2023-04-05T07:59:08.280Z,96.20
2023-04-05T08:02:02.120Z,96.10
2023-04-05T08:05:00.865Z,96.40
2023-04-05T08:07:49.378Z,96.40
2023-04-05T08:10:40.489Z,96.70
2023-04-05T08:13:29.196Z,96.50
2023-04-05T08:16:17.694Z,95.90
2023-04-05T08:19:07.501Z,94.60
2023-04-05T08:21:56.093Z,95.30
2023-04-05T08:24:44.630Z,95.80
2023-04-05T08:27:33.138Z,96.20
2023-04-05T08:30:23.269Z,95.90
2023-04-05T08:33:11.794Z,94.90
2023-04-05T08:36:05.540Z,95.30
2023-04-05T08:38:54.020Z,95.50
2023-04-05T08:41:47.608Z,95.00
2023-04-05T08:44:39.007Z,95.50
2023-04-05T08:47:28.136Z,94.30
2023-04-05T08:50:16.610Z,94.30
2023-04-05T08:53:06.541Z,93.60
2023-04-05T08:55:58.183Z,93.70
2023-04-05T08:58:53.820Z,92.80
2023-04-05T09:01:44.544Z,93.90
2023-04-05T09:04:38.321Z,93.30
2023-04-05T09:10:20.540Z,93.10
2023-04-05T09:13:11.319Z,91.20
2023-04-05T09:16:03.228Z,90.80
2023-04-05T09:18:51.698Z,90.40
2023-04-05T09:21:59.202Z,90.30
2023-04-05T09:24:48.019Z,90.40
2023-04-05T09:27:54.506Z,89.70
2023-04-05T09:30:47.694Z,89.80
2023-04-05T09:33:36.826Z,89.80
2023-04-05T09:36:25.738Z,89.00
2023-04-05T09:39:14.282Z,89.10
2023-04-05T09:42:10.536Z,90.20
2023-04-05T09:45:03.129Z,91.40
2023-04-05T09:47:59.179Z,91.10
2023-04-05T09:50:49.758Z,90.00
2023-04-05T09:53:38.619Z,88.60
2023-04-05T09:56:27.532Z,88.50
2023-04-05T09:59:18.085Z,90.30
2023-04-05T10:02:07.924Z,89.10
2023-04-05T10:04:56.428Z,88.80
2023-04-05T10:07:45.377Z,86.30
2023-04-05T10:10:39.690Z,85.00
2023-04-05T10:13:29.104Z,85.50
2023-04-05T10:16:24.257Z,87.50
2023-04-05T10:19:18.698Z,85.10
2023-04-05T10:22:14.015Z,86.80
2023-04-05T10:25:09.430Z,88.00
2023-04-05T10:28:05.297Z,85.80
2023-04-05T10:31:11.687Z,85.80
2023-04-05T10:34:05.872Z,84.30
2023-04-05T10:37:00.348Z,85.80
2023-04-05T10:39:49.150Z,86.00
2023-04-05T10:42:43.857Z,84.70
2023-04-05T10:45:35.761Z,85.00
2023-04-05T10:48:37.885Z,84.00
2023-04-05T10:51:27.666Z,84.60
2023-04-05T10:54:20.637Z,84.40
2023-04-05T10:57:11.365Z,85.90
2023-04-05T11:00:01.815Z,84.10
2023-04-05T11:02:54.757Z,85.00
2023-04-05T11:05:43.427Z,99.90
2023-04-05T11:08:33.228Z,84.00
2023-04-05T11:11:25.227Z,82.60
2023-04-05T11:14:20.759Z,81.70
2023-04-05T11:17:26.135Z,83.00
2023-04-05T11:20:14.641Z,81.70
2023-04-05T11:23:03.108Z,80.60
2023-04-05T11:25:54.054Z,81.40
2023-04-05T11:28:43.910Z,81.10
2023-04-05T11:31:32.407Z,81.30
2023-04-05T11:34:25.673Z,80.30
2023-04-05T11:48:52.955Z,79.90
2023-04-05T11:51:42.582Z,83.00
2023-04-05T11:54:32.664Z,85.20
2023-04-05T11:57:22.807Z,77.50
2023-04-05T12:00:17.185Z,77.40
2023-04-05T12:03:07.125Z,77.20
2023-04-05T12:05:56.430Z,76.20
2023-04-05T12:08:50.461Z,77.80
2023-04-05T12:11:41.190Z,74.70
2023-04-05T12:14:29.655Z,76.10
2023-04-05T12:17:18.081Z,76.80
2023-04-05T12:20:09.602Z,73.90
2023-04-05T12:25:48.389Z,78.00
2023-04-05T12:28:53.034Z,78.90
2023-04-05T12:31:41.993Z,78.60
2023-04-05T12:34:30.482Z,76.30
2023-04-05T12:37:20.281Z,77.80
2023-04-05T12:40:10.002Z,77.50
2023-04-05T12:43:03.247Z,76.60
2023-04-05T12:45:56.480Z,75.90
2023-04-05T12:48:45.155Z,76.00
2023-04-05T12:51:33.996Z,76.50
2023-04-05T12:54:24.906Z,75.00
2023-04-05T12:57:14.364Z,77.00
2023-04-05T13:00:02.886Z,75.40
2023-04-05T13:02:53.536Z,76.00
2023-04-05T13:05:42.368Z,76.30
2023-04-05T13:08:31.166Z,75.60
2023-04-05T13:11:21.028Z,75.90
2023-04-05T13:14:09.869Z,76.10
2023-04-05T13:16:58.318Z,75.50
2023-04-05T13:19:46.730Z,76.80
2023-04-05T13:22:35.229Z,74.40
2023-04-05T13:25:23.900Z,75.20
2023-04-05T13:28:14.138Z,76.00
2023-04-05T13:31:06.306Z,75.80
2023-04-05T13:33:55.207Z,74.60
2023-04-05T13:36:43.694Z,75.30
2023-04-05T13:39:32.162Z,75.80
2023-04-05T13:42:20.730Z,75.70
2023-04-05T13:45:12.065Z,76.90
2023-04-05T13:48:02.530Z,76.00
2023-04-05T13:50:51.050Z,74.90
2023-04-05T13:53:39.514Z,73.90
2023-04-05T13:56:27.999Z,75.30
2023-04-05T13:59:17.276Z,76.60
2023-04-05T14:02:07.898Z,76.90
2023-04-05T14:04:56.653Z,75.80
2023-04-05T14:07:45.023Z,74.60
2023-04-05T14:10:33.610Z,75.70
2023-04-05T14:13:22.020Z,76.60
2023-04-05T14:16:10.793Z,76.40
2023-04-05T14:19:00.909Z,76.20
2023-04-05T14:21:50.368Z,76.00
2023-04-05T14:24:38.881Z,75.20
2023-04-05T14:27:28.485Z,74.60
2023-04-05T14:30:17.133Z,74.50
2023-04-05T14:33:05.848Z,74.60
2023-04-05T14:35:55.841Z,76.00
2023-04-05T14:38:44.394Z,81.60
2023-04-05T14:41:33.098Z,75.50
2023-04-05T14:44:21.680Z,75.00
2023-04-05T14:47:10.278Z,75.00
2023-04-05T14:49:58.863Z,77.00
2023-04-05T14:52:48.847Z,76.80
2023-04-05T15:12:37.352Z,72.20
2023-04-05T15:15:25.882Z,74.00
2023-04-05T15:18:14.434Z,74.40
2023-04-05T15:21:03.293Z,74.00
2023-04-05T15:23:51.719Z,73.80
2023-04-05T15:26:41.832Z,73.50
2023-04-05T15:29:30.732Z,73.00
2023-04-05T15:32:19.326Z,72.30
2023-04-05T15:35:08.267Z,71.60
2023-04-05T15:37:56.764Z,72.50
2023-04-05T15:40:49.566Z,71.90
2023-04-05T15:43:40.062Z,72.80
2023-04-05T15:46:29.252Z,72.30
2023-04-05T16:09:01.826Z,74.10
2023-04-05T16:11:50.593Z,74.70
2023-04-05T16:14:39.500Z,75.50
2023-04-05T16:17:29.606Z,75.00
2023-04-05T16:20:18.611Z,75.60
2023-04-05T16:23:07.092Z,76.00
2023-04-05T16:25:55.781Z,77.00
2023-04-05T16:28:44.554Z,76.90
2023-04-05T16:31:33.822Z,77.00
2023-04-05T16:34:23.922Z,77.40
2023-04-05T16:37:12.431Z,76.50
2023-04-05T16:40:00.956Z,76.80
2023-04-05T16:42:49.430Z,77.50
2023-04-05T16:45:38.500Z,77.10
2023-04-05T16:48:27.627Z,76.50
2023-04-05T16:51:17.553Z,76.50
2023-04-05T16:54:06.248Z,76.50
2023-04-05T16:56:54.833Z,76.60
2023-04-05T16:59:43.618Z,76.70
2023-04-05T17:02:32.228Z,76.20
2023-04-05T17:05:20.924Z,76.60
2023-04-05T17:08:10.910Z,78.00
2023-04-05T17:10:59.416Z,78.70
2023-04-05T17:13:48.052Z,78.90
2023-04-05T17:16:36.630Z,79.10
2023-04-05T17:19:25.145Z,79.50
2023-04-05T17:22:14.960Z,80.10
2023-04-05T17:25:05.803Z,80.20
2023-04-05T17:27:54.359Z,80.40
2023-04-05T17:30:42.872Z,80.70
2023-04-05T17:33:31.472Z,80.80
2023-04-05T17:36:19.968Z,80.80
2023-04-05T17:39:08.511Z,81.60
2023-04-05T17:41:58.432Z,81.50
2023-04-05T17:44:46.952Z,81.80
2023-04-05T17:47:35.922Z,82.50
2023-04-05T17:50:25.038Z,82.50
2023-04-05T17:53:14.930Z,82.80
2023-04-05T17:56:03.848Z,83.20
2023-04-05T17:58:54.079Z,83.30
2023-04-05T18:01:42.834Z,83.60
2023-04-05T18:05:02.116Z,84.00
2023-04-05T18:07:50.727Z,84.10
2023-04-05T18:10:39.240Z,84.10
2023-04-05T18:13:28.926Z,84.50
2023-04-05T18:16:18.975Z,84.60
2023-04-05T18:19:31.088Z,85.20
2023-04-05T18:22:19.580Z,85.40
2023-04-05T18:25:34.183Z,85.60
2023-04-05T18:28:23.782Z,85.60
2023-04-05T18:31:12.388Z,85.90
2023-04-05T18:34:04.848Z,85.40
2023-04-05T18:36:53.375Z,85.80
2023-04-05T18:39:41.879Z,86.10
2023-04-05T18:42:32.582Z,85.90
2023-04-05T18:45:22.737Z,85.60
2023-04-05T18:48:12.501Z,85.30
2023-04-05T18:51:02.382Z,85.40
2023-04-05T18:53:51.331Z,84.60
2023-04-05T18:56:39.913Z,84.80
2023-04-05T18:59:29.420Z,85.00
2023-04-05T19:02:18.055Z,84.30
2023-04-05T19:05:07.703Z,84.10
2023-04-05T19:07:57.653Z,83.30
2023-04-05T19:10:46.447Z,83.60
2023-04-05T19:13:35.202Z,83.70
2023-04-05T19:16:23.826Z,84.60
2023-04-05T19:19:12.507Z,84.80
2023-04-05T19:22:01.160Z,84.80
2023-04-05T19:24:51.338Z,85.60
2023-04-05T19:27:41.333Z,85.20
2023-04-05T19:30:30.207Z,85.90
2023-04-05T19:33:21.041Z,86.90
2023-04-05T19:36:10.573Z,86.00
2023-04-05T19:38:59.227Z,86.60
2023-04-05T19:41:49.441Z,87.10
2023-04-05T19:44:48.995Z,87.50
2023-04-05T19:47:44.068Z,87.70
2023-04-05T19:50:56.573Z,86.90
2023-04-05T19:53:49.677Z,86.20
2023-04-05T19:56:39.160Z,85.90
2023-04-05T19:59:31.406Z,86.40
2023-04-05T20:02:37.331Z,86.60
2023-04-05T20:05:59.041Z,87.10
2023-04-05T20:08:48.602Z,86.90
2023-04-05T20:11:37.244Z,87.00
2023-04-05T20:14:30.644Z,86.50
2023-04-05T20:17:19.421Z,86.10
2023-04-05T20:20:09.478Z,85.60
2023-04-05T20:22:58.794Z,86.30
2023-04-05T20:25:47.549Z,86.80
2023-04-05T20:28:38.840Z,86.20
2023-04-05T20:31:30.895Z,86.50
2023-04-05T20:34:27.803Z,86.60
2023-04-05T20:37:16.517Z,86.70
2023-04-05T20:40:05.392Z,86.90
2023-04-05T20:42:53.898Z,86.70
2023-04-05T20:45:43.082Z,87.00
2023-04-05T20:48:34.057Z,86.90
2023-04-05T20:51:22.595Z,87.20
2023-04-05T20:54:11.498Z,87.80
2023-04-05T20:57:00.053Z,88.20
2023-04-05T20:59:48.602Z,88.70
2023-04-05T21:02:37.250Z,89.20
2023-04-05T21:05:27.289Z,89.60
2023-04-05T21:08:16.232Z,90.00
2023-04-05T21:11:05.504Z,90.10
2023-04-05T21:13:54.060Z,90.30
2023-04-05T21:16:42.535Z,90.40
2023-04-05T21:19:31.019Z,90.30
2023-04-05T21:22:21.305Z,90.40
2023-04-05T21:25:10.666Z,90.50
2023-04-05T21:27:59.549Z,90.50
2023-04-05T21:30:48.076Z,90.20
2023-04-05T21:33:36.564Z,90.40
2023-04-05T21:36:25.037Z,90.50
2023-04-05T21:39:15.033Z,90.70
2023-04-05T21:42:03.704Z,90.90
2023-04-05T21:44:52.195Z,91.00
2023-04-05T21:47:41.163Z,91.30
2023-04-05T21:50:29.676Z,92.10
2023-04-05T21:53:18.235Z,92.20
2023-04-05T21:56:08.271Z,92.20
2023-04-05T21:58:56.815Z,92.50
2023-04-05T22:01:45.431Z,92.70
2023-04-05T22:04:33.976Z,93.20
2023-04-05T22:07:22.453Z,93.30
2023-04-05T22:10:11.441Z,93.30
2023-04-05T22:13:01.425Z,93.10
2023-04-05T22:15:49.983Z,93.00
2023-04-05T22:18:38.471Z,92.90
2023-04-05T22:21:26.993Z,92.60
2023-04-05T22:24:15.859Z,92.60
2023-04-05T22:27:04.385Z,92.60
2023-04-05T22:29:54.754Z,92.70
2023-04-05T22:32:43.353Z,92.30
2023-04-05T22:35:31.972Z,92.70
2023-04-05T22:38:20.461Z,93.20
2023-04-05T22:41:08.975Z,94.10
2023-04-05T22:43:57.504Z,94.10
2023-04-05T22:46:47.422Z,93.60
2023-04-05T22:49:36.374Z,93.50
2023-04-05T22:52:24.903Z,93.30
2023-04-05T22:55:13.809Z,92.60
2023-04-05T22:58:02.334Z,93.00
2023-04-05T23:00:51.553Z,92.90
2023-04-05T23:03:41.565Z,92.70
2023-04-05T23:06:30.239Z,92.40
2023-04-05T23:09:18.700Z,93.00
2023-04-05T23:12:08.035Z,93.40
2023-04-05T23:14:58.239Z,93.30
2023-04-05T23:17:46.821Z,93.00
2023-04-05T23:20:36.828Z,93.00
2023-04-05T23:23:25.819Z,92.80
2023-04-05T23:26:14.324Z,92.60
2023-04-05T23:29:02.933Z,92.20
2023-04-05T23:31:53.154Z,92.20
2023-04-05T23:34:41.726Z,92.20
2023-04-05T23:37:31.844Z,92.00
2023-04-05T23:40:20.468Z,91.90
2023-04-05T23:43:08.978Z,91.80
2023-04-05T23:45:57.602Z,91.80
2023-04-05T23:48:46.101Z,91.50
2023-04-05T23:51:34.610Z,91.50
2023-04-05T23:54:24.656Z,91.60
2023-04-05T23:57:13.107Z,92.10
